sensor_id;sensor_type;location;lat;lon;timestamp;temperature;humidity
13229;DHT22;6680;53.220;10.402;2023-12-20T00:00:19;6.20;99.90
13229;DHT22;6680;53.220;10.402;2023-12-20T00:02:46;6.20;99.90
13229;DHT22;6680;53.220;10.402;2023-12-20T00:05:13;6.10;99.90
13229;DHT22;6680;53.220;10.402;2023-12-20T00:07:40;6.20;99.90
13229;DHT22;6680;53.220;10.402;2023-12-20T00:10:08;6.20;99.90
13229;DHT22;6680;53.220;10.402;2023-12-20T00:12:34;6.20;99.90
13229;DHT22;6680;53.220;10.402;2023-12-20T00:15:03;6.20;99.90
13229;DHT22;6680;53.220;10.402;2023-12-20T00:17:30;6.30;99.90
13229;DHT22;6680;53.220;10.402;2023-12-20T00:19:57;6.20;99.90
13229;DHT22;6680;53.220;10.402;2023-12-20T00:22:23;6.10;99.90
13229;DHT22;6680;53.220;10.402;2023-12-20T00:24:50;6.10;99.90
13229;DHT22;6680;53.220;10.402;2023-12-20T00:27:17;6.10;99.90
13229;DHT22;6680;53.220;10.402;2023-12-20T00:29:44;6.10;99.90
13229;DHT22;6680;53.220;10.402;2023-12-20T00:32:14;6.10;99.90
13229;DHT22;6680;53.220;10.402;2023-12-20T00:34:42;6.10;99.90
13229;DHT22;6680;53.220;10.402;2023-12-20T00:37:09;6.00;99.90
13229;DHT22;6680;53.220;10.402;2023-12-20T00:39:36;6.00;99.90
13229;DHT22;6680;53.220;10.402;2023-12-20T00:42:03;6.00;99.90
13229;DHT22;6680;53.220;10.402;2023-12-20T00:44:30;5.90;99.90
13229;DHT22;6680;53.220;10.402;2023-12-20T00:46:57;5.70;99.90
13229;DHT22;6680;53.220;10.402;2023-12-20T00:49:25;5.70;99.90
13229;DHT22;6680;53.220;10.402;2023-12-20T00:51:52;5.60;99.90
13229;DHT22;6680;53.220;10.402;2023-12-20T00:54:19;5.60;99.90
13229;DHT22;6680;53.220;10.402;2023-12-20T00:56:46;5.50;99.90
13229;DHT22;6680;53.220;10.402;2023-12-20T00:59:12;5.50;99.90
13229;DHT22;6680;53.220;10.402;2023-12-20T01:01:40;5.50;99.90
13229;DHT22;6680;53.220;10.402;2023-12-20T01:04:07;5.40;99.90
13229;DHT22;6680;53.220;10.402;2023-12-20T01:06:35;5.40;99.90
13229;DHT22;6680;53.220;10.402;2023-12-20T01:09:02;5.40;99.90
13229;DHT22;6680;53.220;10.402;2023-12-20T01:11:29;5.40;99.90
13229;DHT22;6680;53.220;10.402;2023-12-20T01:13:56;5.30;99.90
13229;DHT22;6680;53.220;10.402;2023-12-20T01:16:23;5.30;99.90
13229;DHT22;6680;53.220;10.402;2023-12-20T01:18:50;5.30;99.90
13229;DHT22;6680;53.220;10.402;2023-12-20T01:21:16;5.30;99.90
13229;DHT22;6680;53.220;10.402;2023-12-20T01:23:45;5.40;99.90
13229;DHT22;6680;53.220;10.402;2023-12-20T01:26:11;5.40;99.90
13229;DHT22;6680;53.220;10.402;2023-12-20T01:28:38;5.50;99.90
13229;DHT22;6680;53.220;10.402;2023-12-20T01:31:05;5.60;99.90
13229;DHT22;6680;53.220;10.402;2023-12-20T01:33:32;5.50;99.90
13229;DHT22;6680;53.220;10.402;2023-12-20T01:35:59;5.60;99.90
13229;DHT22;6680;53.220;10.402;2023-12-20T01:38:26;5.60;99.90
13229;DHT22;6680;53.220;10.402;2023-12-20T01:40:54;5.60;99.90
13229;DHT22;6680;53.220;10.402;2023-12-20T01:43:20;5.60;99.90
13229;DHT22;6680;53.220;10.402;2023-12-20T01:45:47;5.60;99.90
13229;DHT22;6680;53.220;10.402;2023-12-20T01:48:15;5.60;99.90
13229;DHT22;6680;53.220;10.402;2023-12-20T01:50:43;5.70;99.90
13229;DHT22;6680;53.220;10.402;2023-12-20T01:53:11;5.60;99.90
13229;DHT22;6680;53.220;10.402;2023-12-20T01:55:40;5.60;99.90
13229;DHT22;6680;53.220;10.402;2023-12-20T01:58:09;5.50;99.90
13229;DHT22;6680;53.220;10.402;2023-12-20T02:00:36;5.60;99.90
13229;DHT22;6680;53.220;10.402;2023-12-20T02:03:04;5.50;99.90
13229;DHT22;6680;53.220;10.402;2023-12-20T02:05:31;5.50;99.90
13229;DHT22;6680;53.220;10.402;2023-12-20T02:07:58;5.40;99.90
13229;DHT22;6680;53.220;10.402;2023-12-20T02:10:25;5.40;99.90
13229;DHT22;6680;53.220;10.402;2023-12-20T02:12:52;5.30;99.90
13229;DHT22;6680;53.220;10.402;2023-12-20T02:15:21;5.30;99.90
13229;DHT22;6680;53.220;10.402;2023-12-20T02:17:48;5.20;99.90
13229;DHT22;6680;53.220;10.402;2023-12-20T02:20:15;5.20;99.90
13229;DHT22;6680;53.220;10.402;2023-12-20T02:22:43;5.10;99.90
13229;DHT22;6680;53.220;10.402;2023-12-20T02:25:10;5.10;99.90
13229;DHT22;6680;53.220;10.402;2023-12-20T02:27:38;5.10;99.90
13229;DHT22;6680;53.220;10.402;2023-12-20T02:30:06;5.00;99.90
13229;DHT22;6680;53.220;10.402;2023-12-20T02:32:33;5.00;99.90
13229;DHT22;6680;53.220;10.402;2023-12-20T02:35:00;5.00;99.90
13229;DHT22;6680;53.220;10.402;2023-12-20T02:37:27;5.10;99.90
13229;DHT22;6680;53.220;10.402;2023-12-20T02:39:55;5.20;99.90
13229;DHT22;6680;53.220;10.402;2023-12-20T02:42:22;5.20;99.90
13229;DHT22;6680;53.220;10.402;2023-12-20T02:44:49;5.30;99.90
13229;DHT22;6680;53.220;10.402;2023-12-20T02:47:15;5.20;99.90
13229;DHT22;6680;53.220;10.402;2023-12-20T02:49:42;5.20;99.90
13229;DHT22;6680;53.220;10.402;2023-12-20T02:52:09;5.30;99.90
13229;DHT22;6680;53.220;10.402;2023-12-20T02:54:36;5.20;99.90
13229;DHT22;6680;53.220;10.402;2023-12-20T02:57:04;5.10;99.90
13229;DHT22;6680;53.220;10.402;2023-12-20T02:59:31;5.20;99.90
13229;DHT22;6680;53.220;10.402;2023-12-20T03:01:58;5.20;99.90
13229;DHT22;6680;53.220;10.402;2023-12-20T03:04:24;5.20;99.90
13229;DHT22;6680;53.220;10.402;2023-12-20T03:06:51;5.20;99.90
13229;DHT22;6680;53.220;10.402;2023-12-20T03:09:18;5.10;99.90
13229;DHT22;6680;53.220;10.402;2023-12-20T03:11:45;5.10;99.90
13229;DHT22;6680;53.220;10.402;2023-12-20T03:14:13;5.10;99.90
13229;DHT22;6680;53.220;10.402;2023-12-20T03:16:40;5.10;99.90
13229;DHT22;6680;53.220;10.402;2023-12-20T03:19:06;5.10;99.90
13229;DHT22;6680;53.220;10.402;2023-12-20T03:21:33;5.00;99.90
13229;DHT22;6680;53.220;10.402;2023-12-20T03:24:00;5.00;99.90
13229;DHT22;6680;53.220;10.402;2023-12-20T03:26:27;5.00;99.90
13229;DHT22;6680;53.220;10.402;2023-12-20T03:28:53;4.90;99.90
13229;DHT22;6680;53.220;10.402;2023-12-20T03:31:22;4.90;99.90
13229;DHT22;6680;53.220;10.402;2023-12-20T03:33:48;4.90;99.90
13229;DHT22;6680;53.220;10.402;2023-12-20T03:36:16;4.80;99.90
13229;DHT22;6680;53.220;10.402;2023-12-20T03:38:43;4.80;99.90
13229;DHT22;6680;53.220;10.402;2023-12-20T03:41:10;4.70;99.90
13229;DHT22;6680;53.220;10.402;2023-12-20T03:43:36;4.60;99.90
13229;DHT22;6680;53.220;10.402;2023-12-20T03:46:03;4.70;99.90
13229;DHT22;6680;53.220;10.402;2023-12-20T03:48:32;4.80;99.90
13229;DHT22;6680;53.220;10.402;2023-12-20T03:50:58;4.80;99.90
13229;DHT22;6680;53.220;10.402;2023-12-20T03:53:25;4.80;99.90
13229;DHT22;6680;53.220;10.402;2023-12-20T03:55:52;4.90;99.90
13229;DHT22;6680;53.220;10.402;2023-12-20T03:58:19;4.90;99.90
13229;DHT22;6680;53.220;10.402;2023-12-20T04:00:46;4.90;99.90
13229;DHT22;6680;53.220;10.402;2023-12-20T04:03:13;5.00;99.90
13229;DHT22;6680;53.220;10.402;2023-12-20T04:05:41;5.00;99.90
13229;DHT22;6680;53.220;10.402;2023-12-20T04:08:09;5.00;99.90
13229;DHT22;6680;53.220;10.402;2023-12-20T04:10:36;5.10;99.90
13229;DHT22;6680;53.220;10.402;2023-12-20T04:13:03;5.10;99.90
13229;DHT22;6680;53.220;10.402;2023-12-20T04:15:30;5.10;99.90
13229;DHT22;6680;53.220;10.402;2023-12-20T04:17:56;5.20;99.90
13229;DHT22;6680;53.220;10.402;2023-12-20T04:20:23;5.30;99.90
13229;DHT22;6680;53.220;10.402;2023-12-20T04:22:51;5.20;99.90
13229;DHT22;6680;53.220;10.402;2023-12-20T04:25:18;5.30;99.90
13229;DHT22;6680;53.220;10.402;2023-12-20T04:27:45;5.30;99.90
13229;DHT22;6680;53.220;10.402;2023-12-20T04:30:12;5.30;99.90
13229;DHT22;6680;53.220;10.402;2023-12-20T04:32:39;5.30;99.90
13229;DHT22;6680;53.220;10.402;2023-12-20T04:35:06;5.30;99.90
13229;DHT22;6680;53.220;10.402;2023-12-20T04:37:34;5.30;99.90
13229;DHT22;6680;53.220;10.402;2023-12-20T04:40:02;5.30;99.90
13229;DHT22;6680;53.220;10.402;2023-12-20T04:42:30;5.40;99.90
13229;DHT22;6680;53.220;10.402;2023-12-20T04:44:57;5.40;99.90
13229;DHT22;6680;53.220;10.402;2023-12-20T04:47:24;5.40;99.90
13229;DHT22;6680;53.220;10.402;2023-12-20T04:49:51;5.40;99.90
13229;DHT22;6680;53.220;10.402;2023-12-20T04:52:18;5.50;99.90
13229;DHT22;6680;53.220;10.402;2023-12-20T04:54:45;5.50;99.90
13229;DHT22;6680;53.220;10.402;2023-12-20T04:57:13;5.60;99.90
13229;DHT22;6680;53.220;10.402;2023-12-20T04:59:39;5.60;99.90
13229;DHT22;6680;53.220;10.402;2023-12-20T05:02:07;5.60;99.90
13229;DHT22;6680;53.220;10.402;2023-12-20T05:04:34;5.60;99.90
13229;DHT22;6680;53.220;10.402;2023-12-20T05:07:00;5.60;99.90
13229;DHT22;6680;53.220;10.402;2023-12-20T05:09:27;5.60;99.90
13229;DHT22;6680;53.220;10.402;2023-12-20T05:11:54;5.60;99.90
13229;DHT22;6680;53.220;10.402;2023-12-20T05:14:22;5.70;99.90
13229;DHT22;6680;53.220;10.402;2023-12-20T05:16:50;5.70;99.90
13229;DHT22;6680;53.220;10.402;2023-12-20T05:19:17;5.70;99.90
13229;DHT22;6680;53.220;10.402;2023-12-20T05:21:43;5.60;99.90
13229;DHT22;6680;53.220;10.402;2023-12-20T05:24:10;5.60;99.90
13229;DHT22;6680;53.220;10.402;2023-12-20T05:26:37;5.60;99.90
13229;DHT22;6680;53.220;10.402;2023-12-20T05:29:04;5.60;99.90
13229;DHT22;6680;53.220;10.402;2023-12-20T05:31:32;5.70;99.90
13229;DHT22;6680;53.220;10.402;2023-12-20T05:33:59;5.70;99.90
13229;DHT22;6680;53.220;10.402;2023-12-20T05:36:26;5.70;99.90
13229;DHT22;6680;53.220;10.402;2023-12-20T05:38:53;5.70;99.90
13229;DHT22;6680;53.220;10.402;2023-12-20T05:41:19;5.70;99.90
13229;DHT22;6680;53.220;10.402;2023-12-20T05:43:47;5.70;99.90
13229;DHT22;6680;53.220;10.402;2023-12-20T05:46:14;5.80;99.90
13229;DHT22;6680;53.220;10.402;2023-12-20T05:48:42;5.90;99.90
13229;DHT22;6680;53.220;10.402;2023-12-20T05:51:11;5.80;99.90
13229;DHT22;6680;53.220;10.402;2023-12-20T05:53:38;5.90;99.90
13229;DHT22;6680;53.220;10.402;2023-12-20T05:56:05;5.80;99.90
13229;DHT22;6680;53.220;10.402;2023-12-20T05:58:32;5.90;99.90
13229;DHT22;6680;53.220;10.402;2023-12-20T06:00:59;6.00;99.90
13229;DHT22;6680;53.220;10.402;2023-12-20T06:03:26;5.90;99.90
13229;DHT22;6680;53.220;10.402;2023-12-20T06:05:54;5.90;99.90
13229;DHT22;6680;53.220;10.402;2023-12-20T06:08:21;6.00;99.90
13229;DHT22;6680;53.220;10.402;2023-12-20T06:10:48;6.10;99.90
13229;DHT22;6680;53.220;10.402;2023-12-20T06:13:15;6.10;99.90
13229;DHT22;6680;53.220;10.402;2023-12-20T06:15:42;6.10;99.90
13229;DHT22;6680;53.220;10.402;2023-12-20T06:18:08;6.10;99.90
13229;DHT22;6680;53.220;10.402;2023-12-20T06:20:35;6.10;99.90
13229;DHT22;6680;53.220;10.402;2023-12-20T06:23:04;6.10;99.90
13229;DHT22;6680;53.220;10.402;2023-12-20T06:25:30;6.10;99.90
13229;DHT22;6680;53.220;10.402;2023-12-20T06:27:57;6.00;99.90
13229;DHT22;6680;53.220;10.402;2023-12-20T06:30:24;6.10;99.90
13229;DHT22;6680;53.220;10.402;2023-12-20T06:32:53;6.10;99.90
13229;DHT22;6680;53.220;10.402;2023-12-20T06:35:20;6.00;99.90
13229;DHT22;6680;53.220;10.402;2023-12-20T06:37:47;5.90;99.90
13229;DHT22;6680;53.220;10.402;2023-12-20T06:40:15;5.90;99.90
13229;DHT22;6680;53.220;10.402;2023-12-20T06:42:42;6.00;99.90
13229;DHT22;6680;53.220;10.402;2023-12-20T06:45:10;5.90;99.90
13229;DHT22;6680;53.220;10.402;2023-12-20T06:47:37;5.90;99.90
13229;DHT22;6680;53.220;10.402;2023-12-20T06:50:04;5.90;99.90
13229;DHT22;6680;53.220;10.402;2023-12-20T06:52:33;5.90;99.90
13229;DHT22;6680;53.220;10.402;2023-12-20T06:55:00;6.00;99.90
13229;DHT22;6680;53.220;10.402;2023-12-20T06:57:29;6.00;99.90
13229;DHT22;6680;53.220;10.402;2023-12-20T06:59:56;6.00;99.90
13229;DHT22;6680;53.220;10.402;2023-12-20T07:02:23;6.00;99.90
13229;DHT22;6680;53.220;10.402;2023-12-20T07:04:50;6.00;99.90
13229;DHT22;6680;53.220;10.402;2023-12-20T07:07:16;5.90;99.90
13229;DHT22;6680;53.220;10.402;2023-12-20T07:09:43;6.00;99.90
13229;DHT22;6680;53.220;10.402;2023-12-20T07:12:10;5.90;99.90
13229;DHT22;6680;53.220;10.402;2023-12-20T07:14:38;5.90;99.90
13229;DHT22;6680;53.220;10.402;2023-12-20T07:17:05;5.90;99.90
13229;DHT22;6680;53.220;10.402;2023-12-20T07:19:36;5.90;99.90
13229;DHT22;6680;53.220;10.402;2023-12-20T07:22:03;5.90;99.90
13229;DHT22;6680;53.220;10.402;2023-12-20T07:24:30;5.90;99.90
13229;DHT22;6680;53.220;10.402;2023-12-20T07:26:57;5.90;99.90
13229;DHT22;6680;53.220;10.402;2023-12-20T07:29:24;5.90;99.90
13229;DHT22;6680;53.220;10.402;2023-12-20T07:31:52;5.90;99.90
13229;DHT22;6680;53.220;10.402;2023-12-20T07:34:19;6.00;99.90
13229;DHT22;6680;53.220;10.402;2023-12-20T07:36:47;6.00;99.90
13229;DHT22;6680;53.220;10.402;2023-12-20T07:39:14;6.00;99.90
13229;DHT22;6680;53.220;10.402;2023-12-20T07:41:41;6.00;99.90
13229;DHT22;6680;53.220;10.402;2023-12-20T07:44:08;6.00;99.90
13229;DHT22;6680;53.220;10.402;2023-12-20T07:46:34;6.10;99.90
13229;DHT22;6680;53.220;10.402;2023-12-20T07:49:03;6.00;99.90
13229;DHT22;6680;53.220;10.402;2023-12-20T07:51:30;6.00;99.90
13229;DHT22;6680;53.220;10.402;2023-12-20T07:53:57;6.00;99.90
13229;DHT22;6680;53.220;10.402;2023-12-20T07:56:24;6.00;99.90
13229;DHT22;6680;53.220;10.402;2023-12-20T07:58:50;6.10;99.90
13229;DHT22;6680;53.220;10.402;2023-12-20T08:01:17;6.10;99.90
13229;DHT22;6680;53.220;10.402;2023-12-20T08:03:45;6.10;99.90
13229;DHT22;6680;53.220;10.402;2023-12-20T08:06:13;6.10;99.90
13229;DHT22;6680;53.220;10.402;2023-12-20T08:08:40;6.10;99.90
13229;DHT22;6680;53.220;10.402;2023-12-20T08:11:06;6.10;99.90
13229;DHT22;6680;53.220;10.402;2023-12-20T08:13:33;6.10;99.90
13229;DHT22;6680;53.220;10.402;2023-12-20T08:16:00;6.20;99.90
13229;DHT22;6680;53.220;10.402;2023-12-20T08:18:28;6.10;99.90
13229;DHT22;6680;53.220;10.402;2023-12-20T08:20:55;6.20;99.90
13229;DHT22;6680;53.220;10.402;2023-12-20T08:23:23;6.10;99.90
13229;DHT22;6680;53.220;10.402;2023-12-20T08:25:50;6.10;99.90
13229;DHT22;6680;53.220;10.402;2023-12-20T08:28:17;6.20;99.90
13229;DHT22;6680;53.220;10.402;2023-12-20T08:30:43;6.10;99.90
13229;DHT22;6680;53.220;10.402;2023-12-20T08:33:10;6.10;99.90
13229;DHT22;6680;53.220;10.402;2023-12-20T08:35:38;6.10;99.90
13229;DHT22;6680;53.220;10.402;2023-12-20T08:38:05;6.10;99.90
13229;DHT22;6680;53.220;10.402;2023-12-20T08:40:33;6.20;99.90
13229;DHT22;6680;53.220;10.402;2023-12-20T08:43:01;6.30;99.90
13229;DHT22;6680;53.220;10.402;2023-12-20T08:45:27;6.20;99.90
13229;DHT22;6680;53.220;10.402;2023-12-20T08:47:54;6.20;99.90
13229;DHT22;6680;53.220;10.402;2023-12-20T08:50:21;6.20;99.90
13229;DHT22;6680;53.220;10.402;2023-12-20T08:52:48;6.20;99.90
13229;DHT22;6680;53.220;10.402;2023-12-20T08:55:15;6.20;99.90
13229;DHT22;6680;53.220;10.402;2023-12-20T08:57:45;6.20;99.90
13229;DHT22;6680;53.220;10.402;2023-12-20T09:00:12;6.20;99.90
13229;DHT22;6680;53.220;10.402;2023-12-20T09:02:41;6.40;99.90
13229;DHT22;6680;53.220;10.402;2023-12-20T09:05:08;6.40;99.90
13229;DHT22;6680;53.220;10.402;2023-12-20T09:07:35;6.40;99.90
13229;DHT22;6680;53.220;10.402;2023-12-20T09:10:02;5.90;99.90
13229;DHT22;6680;53.220;10.402;2023-12-20T09:12:29;6.50;99.90
13229;DHT22;6680;53.220;10.402;2023-12-20T09:14:57;6.50;99.90
13229;DHT22;6680;53.220;10.402;2023-12-20T09:17:24;6.60;99.90
13229;DHT22;6680;53.220;10.402;2023-12-20T09:19:50;6.70;99.90
13229;DHT22;6680;53.220;10.402;2023-12-20T09:22:19;6.60;99.90
13229;DHT22;6680;53.220;10.402;2023-12-20T09:24:46;6.60;99.90
13229;DHT22;6680;53.220;10.402;2023-12-20T09:27:13;6.50;99.90
13229;DHT22;6680;53.220;10.402;2023-12-20T09:29:40;6.50;99.90
13229;DHT22;6680;53.220;10.402;2023-12-20T09:32:08;6.40;99.90
13229;DHT22;6680;53.220;10.402;2023-12-20T09:34:35;6.30;99.90
13229;DHT22;6680;53.220;10.402;2023-12-20T09:37:03;6.30;99.90
13229;DHT22;6680;53.220;10.402;2023-12-20T09:39:31;6.30;99.90
13229;DHT22;6680;53.220;10.402;2023-12-20T09:42:01;6.20;99.90
13229;DHT22;6680;53.220;10.402;2023-12-20T09:44:28;6.20;99.90
13229;DHT22;6680;53.220;10.402;2023-12-20T09:46:56;6.20;99.90
13229;DHT22;6680;53.220;10.402;2023-12-20T09:49:25;6.20;99.90
13229;DHT22;6680;53.220;10.402;2023-12-20T09:51:54;6.20;99.90
13229;DHT22;6680;53.220;10.402;2023-12-20T09:54:21;6.10;99.90
13229;DHT22;6680;53.220;10.402;2023-12-20T09:56:48;6.20;99.90
13229;DHT22;6680;53.220;10.402;2023-12-20T09:59:15;6.30;99.90
13229;DHT22;6680;53.220;10.402;2023-12-20T10:01:43;6.30;99.90
13229;DHT22;6680;53.220;10.402;2023-12-20T10:04:10;6.20;99.90
13229;DHT22;6680;53.220;10.402;2023-12-20T10:06:39;6.20;99.90
13229;DHT22;6680;53.220;10.402;2023-12-20T10:09:06;6.20;99.90
13229;DHT22;6680;53.220;10.402;2023-12-20T10:11:35;6.20;99.90
13229;DHT22;6680;53.220;10.402;2023-12-20T10:14:03;6.20;99.90
13229;DHT22;6680;53.220;10.402;2023-12-20T10:16:30;6.00;99.90
13229;DHT22;6680;53.220;10.402;2023-12-20T10:18:58;5.80;99.90
13229;DHT22;6680;53.220;10.402;2023-12-20T10:21:25;5.80;99.90
13229;DHT22;6680;53.220;10.402;2023-12-20T10:23:54;5.60;99.90
13229;DHT22;6680;53.220;10.402;2023-12-20T10:26:21;5.70;99.90
13229;DHT22;6680;53.220;10.402;2023-12-20T10:28:50;5.60;99.90
13229;DHT22;6680;53.220;10.402;2023-12-20T10:31:31;5.70;99.90
13229;DHT22;6680;53.220;10.402;2023-12-20T10:33:59;5.80;99.90
13229;DHT22;6680;53.220;10.402;2023-12-20T10:36:28;5.80;99.90
13229;DHT22;6680;53.220;10.402;2023-12-20T10:38:57;5.80;99.90
13229;DHT22;6680;53.220;10.402;2023-12-20T10:41:26;5.80;99.90
13229;DHT22;6680;53.220;10.402;2023-12-20T10:43:58;5.90;99.90
13229;DHT22;6680;53.220;10.402;2023-12-20T10:46:26;5.80;99.90
13229;DHT22;6680;53.220;10.402;2023-12-20T10:48:54;5.70;99.90
13229;DHT22;6680;53.220;10.402;2023-12-20T10:51:21;5.70;99.90
13229;DHT22;6680;53.220;10.402;2023-12-20T10:53:50;5.60;99.90
13229;DHT22;6680;53.220;10.402;2023-12-20T10:56:19;5.70;99.90
13229;DHT22;6680;53.220;10.402;2023-12-20T10:58:48;5.80;99.90
13229;DHT22;6680;53.220;10.402;2023-12-20T11:01:16;5.80;99.90
13229;DHT22;6680;53.220;10.402;2023-12-20T11:03:48;5.90;99.90
13229;DHT22;6680;53.220;10.402;2023-12-20T11:06:26;5.90;99.90
13229;DHT22;6680;53.220;10.402;2023-12-20T11:09:01;6.00;99.90
13229;DHT22;6680;53.220;10.402;2023-12-20T11:11:42;6.70;99.90
13229;DHT22;6680;53.220;10.402;2023-12-20T11:14:15;5.90;99.90
13229;DHT22;6680;53.220;10.402;2023-12-20T11:16:43;5.90;99.90
13229;DHT22;6680;53.220;10.402;2023-12-20T11:19:11;5.90;99.90
13229;DHT22;6680;53.220;10.402;2023-12-20T11:21:40;5.80;99.90
13229;DHT22;6680;53.220;10.402;2023-12-20T11:24:07;5.90;99.90
13229;DHT22;6680;53.220;10.402;2023-12-20T11:26:35;6.00;99.90
13229;DHT22;6680;53.220;10.402;2023-12-20T11:29:30;6.00;99.90
13229;DHT22;6680;53.220;10.402;2023-12-20T11:31:59;6.00;99.90
13229;DHT22;6680;53.220;10.402;2023-12-20T11:34:27;5.90;99.90
13229;DHT22;6680;53.220;10.402;2023-12-20T11:36:57;5.80;99.90
13229;DHT22;6680;53.220;10.402;2023-12-20T11:39:25;5.80;99.90
13229;DHT22;6680;53.220;10.402;2023-12-20T11:41:54;5.90;99.90
13229;DHT22;6680;53.220;10.402;2023-12-20T11:44:21;5.90;99.90
13229;DHT22;6680;53.220;10.402;2023-12-20T11:46:49;5.80;99.90
13229;DHT22;6680;53.220;10.402;2023-12-20T11:49:15;5.80;99.90
13229;DHT22;6680;53.220;10.402;2023-12-20T11:51:42;5.80;99.90
13229;DHT22;6680;53.220;10.402;2023-12-20T11:54:10;5.90;99.90
13229;DHT22;6680;53.220;10.402;2023-12-20T11:56:37;6.00;99.90
13229;DHT22;6680;53.220;10.402;2023-12-20T11:59:05;5.90;99.90
13229;DHT22;6680;53.220;10.402;2023-12-20T12:01:34;6.00;99.90
13229;DHT22;6680;53.220;10.402;2023-12-20T12:04:04;5.90;99.90
13229;DHT22;6680;53.220;10.402;2023-12-20T12:06:31;6.00;99.90
13229;DHT22;6680;53.220;10.402;2023-12-20T12:08:57;6.10;99.90
13229;DHT22;6680;53.220;10.402;2023-12-20T12:11:24;6.10;99.90
13229;DHT22;6680;53.220;10.402;2023-12-20T12:13:51;6.20;99.90
13229;DHT22;6680;53.220;10.402;2023-12-20T12:16:20;6.20;99.90
13229;DHT22;6680;53.220;10.402;2023-12-20T12:18:55;6.30;99.90
13229;DHT22;6680;53.220;10.402;2023-12-20T12:21:22;6.30;99.90
13229;DHT22;6680;53.220;10.402;2023-12-20T12:23:49;6.40;99.90
13229;DHT22;6680;53.220;10.402;2023-12-20T12:26:15;6.40;99.90
13229;DHT22;6680;53.220;10.402;2023-12-20T12:28:43;6.40;99.90
13229;DHT22;6680;53.220;10.402;2023-12-20T12:31:13;6.50;99.90
13229;DHT22;6680;53.220;10.402;2023-12-20T12:33:42;6.70;99.90
13229;DHT22;6680;53.220;10.402;2023-12-20T12:36:10;6.60;99.90
13229;DHT22;6680;53.220;10.402;2023-12-20T12:38:37;6.60;99.90
13229;DHT22;6680;53.220;10.402;2023-12-20T12:41:04;6.50;99.90
13229;DHT22;6680;53.220;10.402;2023-12-20T12:43:32;6.50;99.90
13229;DHT22;6680;53.220;10.402;2023-12-20T12:46:00;6.50;99.90
13229;DHT22;6680;53.220;10.402;2023-12-20T12:48:27;6.50;99.90
13229;DHT22;6680;53.220;10.402;2023-12-20T12:50:55;6.50;99.90
13229;DHT22;6680;53.220;10.402;2023-12-20T12:53:25;6.50;99.90
13229;DHT22;6680;53.220;10.402;2023-12-20T12:55:52;6.50;99.90
13229;DHT22;6680;53.220;10.402;2023-12-20T12:58:19;6.60;99.90
13229;DHT22;6680;53.220;10.402;2023-12-20T13:00:46;6.60;99.90
13229;DHT22;6680;53.220;10.402;2023-12-20T13:03:13;6.40;99.90
13229;DHT22;6680;53.220;10.402;2023-12-20T13:05:40;6.20;99.90
13229;DHT22;6680;53.220;10.402;2023-12-20T13:08:08;6.20;99.90
13229;DHT22;6680;53.220;10.402;2023-12-20T13:10:37;6.20;99.90
13229;DHT22;6680;53.220;10.402;2023-12-20T13:13:04;6.10;99.90
13229;DHT22;6680;53.220;10.402;2023-12-20T13:15:31;6.00;99.90
13229;DHT22;6680;53.220;10.402;2023-12-20T13:17:58;5.90;99.90
13229;DHT22;6680;53.220;10.402;2023-12-20T13:20:25;5.90;99.90
13229;DHT22;6680;53.220;10.402;2023-12-20T13:22:52;5.70;99.90
13229;DHT22;6680;53.220;10.402;2023-12-20T13:25:20;5.70;99.90
13229;DHT22;6680;53.220;10.402;2023-12-20T13:27:47;5.70;99.90
13229;DHT22;6680;53.220;10.402;2023-12-20T13:30:14;5.60;99.90
13229;DHT22;6680;53.220;10.402;2023-12-20T13:32:41;5.50;99.90
13229;DHT22;6680;53.220;10.402;2023-12-20T13:35:08;5.60;99.90
13229;DHT22;6680;53.220;10.402;2023-12-20T13:37:35;5.60;99.90
13229;DHT22;6680;53.220;10.402;2023-12-20T13:40:02;5.50;99.90
13229;DHT22;6680;53.220;10.402;2023-12-20T13:42:31;5.50;99.90
13229;DHT22;6680;53.220;10.402;2023-12-20T13:44:58;5.50;99.90
13229;DHT22;6680;53.220;10.402;2023-12-20T13:47:24;5.60;99.90
13229;DHT22;6680;53.220;10.402;2023-12-20T13:49:51;5.60;99.90
13229;DHT22;6680;53.220;10.402;2023-12-20T13:52:18;5.70;99.90
13229;DHT22;6680;53.220;10.402;2023-12-20T13:54:45;5.70;99.90
13229;DHT22;6680;53.220;10.402;2023-12-20T13:57:13;5.60;99.90
13229;DHT22;6680;53.220;10.402;2023-12-20T13:59:41;5.60;99.90
13229;DHT22;6680;53.220;10.402;2023-12-20T14:02:08;5.60;99.90
13229;DHT22;6680;53.220;10.402;2023-12-20T14:04:34;5.60;99.90
13229;DHT22;6680;53.220;10.402;2023-12-20T14:07:01;5.60;99.90
13229;DHT22;6680;53.220;10.402;2023-12-20T14:09:28;5.50;99.90
13229;DHT22;6680;53.220;10.402;2023-12-20T14:11:55;5.50;99.90
13229;DHT22;6680;53.220;10.402;2023-12-20T14:14:22;5.50;99.90
13229;DHT22;6680;53.220;10.402;2023-12-20T14:16:50;5.50;99.90
13229;DHT22;6680;53.220;10.402;2023-12-20T14:19:17;5.60;99.90
13229;DHT22;6680;53.220;10.402;2023-12-20T14:21:44;5.60;99.90
13229;DHT22;6680;53.220;10.402;2023-12-20T14:24:12;5.80;99.90
13229;DHT22;6680;53.220;10.402;2023-12-20T14:26:40;5.50;99.90
13229;DHT22;6680;53.220;10.402;2023-12-20T14:29:07;5.50;99.90
13229;DHT22;6680;53.220;10.402;2023-12-20T14:31:34;5.50;99.90
13229;DHT22;6680;53.220;10.402;2023-12-20T14:34:03;5.50;99.90
13229;DHT22;6680;53.220;10.402;2023-12-20T14:36:30;5.40;99.90
13229;DHT22;6680;53.220;10.402;2023-12-20T14:38:57;5.40;99.90
13229;DHT22;6680;53.220;10.402;2023-12-20T14:41:24;5.40;99.90
13229;DHT22;6680;53.220;10.402;2023-12-20T14:43:51;5.40;99.90
13229;DHT22;6680;53.220;10.402;2023-12-20T14:46:19;5.40;99.90
13229;DHT22;6680;53.220;10.402;2023-12-20T14:48:45;5.40;99.90
13229;DHT22;6680;53.220;10.402;2023-12-20T14:51:15;5.40;99.90
13229;DHT22;6680;53.220;10.402;2023-12-20T14:53:42;5.40;99.90
13229;DHT22;6680;53.220;10.402;2023-12-20T14:56:09;5.40;99.90
13229;DHT22;6680;53.220;10.402;2023-12-20T14:58:35;5.50;99.90
13229;DHT22;6680;53.220;10.402;2023-12-20T15:01:03;5.40;99.90
13229;DHT22;6680;53.220;10.402;2023-12-20T15:03:29;5.40;99.90
13229;DHT22;6680;53.220;10.402;2023-12-20T15:05:56;5.40;99.90
13229;DHT22;6680;53.220;10.402;2023-12-20T15:08:25;5.30;99.90
13229;DHT22;6680;53.220;10.402;2023-12-20T15:10:52;5.30;99.90
13229;DHT22;6680;53.220;10.402;2023-12-20T15:13:19;5.30;99.90
13229;DHT22;6680;53.220;10.402;2023-12-20T15:15:46;5.30;99.90
13229;DHT22;6680;53.220;10.402;2023-12-20T15:18:13;5.30;99.90
13229;DHT22;6680;53.220;10.402;2023-12-20T15:20:40;5.20;99.90
13229;DHT22;6680;53.220;10.402;2023-12-20T15:23:09;5.20;99.90
13229;DHT22;6680;53.220;10.402;2023-12-20T15:25:37;5.20;99.90
13229;DHT22;6680;53.220;10.402;2023-12-20T15:28:04;5.20;99.90
13229;DHT22;6680;53.220;10.402;2023-12-20T15:30:31;5.20;99.90
13229;DHT22;6680;53.220;10.402;2023-12-20T15:32:58;5.30;99.90
13229;DHT22;6680;53.220;10.402;2023-12-20T15:35:25;5.30;99.90
13229;DHT22;6680;53.220;10.402;2023-12-20T15:37:52;5.40;99.90
13229;DHT22;6680;53.220;10.402;2023-12-20T15:40:19;5.40;99.90
13229;DHT22;6680;53.220;10.402;2023-12-20T15:42:47;5.50;99.90
13229;DHT22;6680;53.220;10.402;2023-12-20T15:45:14;5.40;99.90